Time;durP1;ratioP1;P1;durP2;ratioP2;P2;SDS_P1;SDS_P2;PMS_P1;PMS_P2;Temp;Humidity;BMP_temperature;BMP_pressure;BME280_temperature;BME280_humidity;BME280_pressure;Samples;Min_cycle;Max_cycle;Signal;HPM_P1;HPM_P2
2023/05/15 00:00:57;;;;;;;58.55;45.20;;;;;;;;;;6156674;23;20009;-84
2023/05/15 00:03:24;;;;;;;56.95;43.50;;;;;;;;;;6156520;23;20052;-83
2023/05/15 00:05:51;;;;;;;64.05;45.72;;;;;;;;;;6185084;23;20017;-83
2023/05/15 00:08:17;;;;;;;61.90;44.80;;;;;;;;;;6158854;23;20024;-84
2023/05/15 00:10:43;;;;;;;63.13;45.55;;;;;;;;;;6158466;23;20481;-84
2023/05/15 00:13:09;;;;;;;61.00;43.75;;;;;;;;;;6157167;23;20024;-83
2023/05/15 00:15:35;;;;;;;48.92;39.97;;;;;;;;;;6133721;23;20092;-83
2023/05/15 00:18:01;;;;;;;64.45;41.42;;;;;;;;;;6133895;23;20455;-84
2023/05/15 00:20:27;;;;;;;60.97;43.30;;;;;;;;;;6134202;23;20024;-83
2023/05/15 00:22:53;;;;;;;55.50;41.83;;;;;;;;;;6133587;23;20017;-83
2023/05/15 00:25:19;;;;;;;74.50;43.88;;;;;;;;;;6158874;23;20016;-84
2023/05/15 00:27:45;;;;;;;54.60;42.10;;;;;;;;;;6158268;23;20340;-84
2023/05/15 00:30:12;;;;;;;67.47;45.00;;;;;;;;;;6159286;23;20455;-84
2023/05/15 00:32:39;;;;;;;61.17;42.22;;;;;;;;;;6158435;23;20020;-84
2023/05/15 00:35:05;;;;;;;58.03;41.78;;;;;;;;;;6158734;23;20015;-84
2023/05/15 00:37:31;;;;;;;142.60;43.42;;;;;;;;;;6158037;23;20009;-84
2023/05/15 00:39:57;;;;;;;53.33;41.42;;;;;;;;;;6133731;23;20057;-84
2023/05/15 00:42:23;;;;;;;71.85;42.22;;;;;;;;;;6157831;23;20102;-84
2023/05/15 00:44:50;;;;;;;64.68;44.53;;;;;;;;;;6134419;23;20013;-84
2023/05/15 00:47:16;;;;;;;53.00;43.03;;;;;;;;;;6158057;23;20341;-84
2023/05/15 00:49:43;;;;;;;113.07;50.35;;;;;;;;;;6134023;23;20150;-84
2023/05/15 00:52:09;;;;;;;57.42;43.63;;;;;;;;;;6133335;23;20032;-84
2023/05/15 00:54:35;;;;;;;61.42;46.05;;;;;;;;;;6132550;23;20013;-85
2023/05/15 00:57:03;;;;;;;61.67;46.88;;;;;;;;;;6158193;23;20095;-84
2023/05/15 00:59:30;;;;;;;62.70;44.90;;;;;;;;;;6182146;23;20013;-84
2023/05/15 01:01:56;;;;;;;56.65;43.65;;;;;;;;;;6157821;23;20017;-83
2023/05/15 01:04:22;;;;;;;67.85;46.63;;;;;;;;;;6184227;23;20071;-84
2023/05/15 01:06:48;;;;;;;61.65;46.40;;;;;;;;;;6157671;23;20029;-84
2023/05/15 01:09:15;;;;;;;66.43;46.53;;;;;;;;;;6156894;23;20016;-84
2023/05/15 01:11:41;;;;;;;61.17;42.95;;;;;;;;;;6158982;23;20017;-84
2023/05/15 01:14:08;;;;;;;64.78;45.65;;;;;;;;;;6157762;23;20039;-84
2023/05/15 01:16:35;;;;;;;68.00;48.42;;;;;;;;;;6158188;23;20020;-84
2023/05/15 01:19:01;;;;;;;65.25;48.22;;;;;;;;;;6185616;23;20148;-84
2023/05/15 01:21:36;;;;;;;73.70;50.90;;;;;;;;;;6185266;23;20069;-84
2023/05/15 01:24:21;;;;;;;61.42;46.45;;;;;;;;;;6133032;23;20009;-84
2023/05/15 01:27:06;;;;;;;57.60;44.85;;;;;;;;;;6185672;23;20013;-83
2023/05/15 01:29:46;;;;;;;61.53;45.17;;;;;;;;;;6159717;23;20059;-84
2023/05/15 01:32:14;;;;;;;63.90;46.63;;;;;;;;;;6185027;23;20013;-84
2023/05/15 01:34:47;;;;;;;63.50;46.20;;;;;;;;;;6158613;23;20036;-85
2023/05/15 01:37:17;;;;;;;61.25;45.22;;;;;;;;;;6185730;23;20016;-84
2023/05/15 01:39:44;;;;;;;63.60;45.60;;;;;;;;;;6158115;23;20046;-84
2023/05/15 01:42:13;;;;;;;52.90;41.60;;;;;;;;;;6184249;23;20024;-84
2023/05/15 01:44:45;;;;;;;56.70;44.38;;;;;;;;;;6184109;23;20021;-84
2023/05/15 01:47:16;;;;;;;63.53;45.28;;;;;;;;;;6158070;23;20349;-84
2023/05/15 01:49:44;;;;;;;57.63;43.25;;;;;;;;;;6133573;23;20020;-84
2023/05/15 01:52:30;;;;;;;59.42;45.03;;;;;;;;;;6158108;23;20021;-84
2023/05/15 01:54:57;;;;;;;62.47;45.20;;;;;;;;;;6183754;23;20020;-84
2023/05/15 01:57:24;;;;;;;61.83;45.53;;;;;;;;;;6156972;23;20039;-83
2023/05/15 01:59:50;;;;;;;66.63;47.25;;;;;;;;;;6155951;23;20025;-83
2023/05/15 02:02:17;;;;;;;61.75;46.75;;;;;;;;;;6156579;23;20019;-84
2023/05/15 02:04:44;;;;;;;61.83;45.85;;;;;;;;;;6157497;23;20024;-83
2023/05/15 02:07:11;;;;;;;67.65;47.90;;;;;;;;;;6156703;23;20036;-84
2023/05/15 02:09:37;;;;;;;64.20;48.70;;;;;;;;;;6184044;23;20028;-84
2023/05/15 02:12:03;;;;;;;63.28;45.78;;;;;;;;;;6157168;23;20091;-83
2023/05/15 02:14:30;;;;;;;65.20;47.50;;;;;;;;;;6183618;23;20013;-84
2023/05/15 02:16:56;;;;;;;71.07;49.22;;;;;;;;;;6183240;23;20428;-84
2023/05/15 02:19:22;;;;;;;62.53;46.38;;;;;;;;;;6183433;23;20107;-84
2023/05/15 02:21:48;;;;;;;65.88;46.75;;;;;;;;;;6157611;23;20013;-84
2023/05/15 02:24:14;;;;;;;81.00;48.65;;;;;;;;;;6157240;23;20017;-84
2023/05/15 02:26:58;;;;;;;68.38;48.75;;;;;;;;;;6131664;23;20024;-84
2023/05/15 02:29:34;;;;;;;61.45;46.38;;;;;;;;;;6156572;23;20024;-84
2023/05/15 02:32:07;;;;;;;69.53;48.78;;;;;;;;;;6156941;23;20044;-84
2023/05/15 02:35:03;;;;;;;65.38;48.65;;;;;;;;;;6183969;23;20075;-84
2023/05/15 02:37:31;;;;;;;63.97;46.97;;;;;;;;;;6092519;23;20014;-84
2023/05/15 02:39:58;;;;;;;59.58;46.35;;;;;;;;;;6092498;23;20017;-84
2023/05/15 02:42:26;;;;;;;75.93;49.83;;;;;;;;;;6067855;23;20022;-84
2023/05/15 02:44:53;;;;;;;86.57;52.60;;;;;;;;;;6091638;23;20015;-84
2023/05/15 02:47:19;;;;;;;64.25;46.58;;;;;;;;;;6092466;23;20030;-84
2023/05/15 02:49:46;;;;;;;69.88;49.60;;;;;;;;;;6093451;23;20107;-84
2023/05/15 02:52:12;;;;;;;62.97;48.05;;;;;;;;;;6091078;23;20093;-84
2023/05/15 02:54:38;;;;;;;61.30;46.28;;;;;;;;;;6092698;23;20030;-83
2023/05/15 02:57:04;;;;;;;62.65;46.40;;;;;;;;;;6068433;23;20042;-83
2023/05/15 02:59:30;;;;;;;66.03;48.55;;;;;;;;;;6091808;23;20085;-85
2023/05/15 03:01:56;;;;;;;61.17;47.20;;;;;;;;;;6092761;23;20018;-84
2023/05/15 03:04:23;;;;;;;56.17;44.17;;;;;;;;;;6091969;23;20026;-83
2023/05/15 03:06:49;;;;;;;59.53;44.28;;;;;;;;;;6091664;23;20454;-84
2023/05/15 03:09:15;;;;;;;58.35;44.72;;;;;;;;;;6092168;23;20058;-84
2023/05/15 03:11:41;;;;;;;64.72;44.72;;;;;;;;;;6068827;23;20019;-83
2023/05/15 03:14:07;;;;;;;96.95;45.72;;;;;;;;;;6134015;23;20019;-83
2023/05/15 03:16:35;;;;;;;76.13;50.05;;;;;;;;;;6158234;23;20021;-84
2023/05/15 03:19:01;;;;;;;162.32;49.65;;;;;;;;;;6157417;23;20514;-83
2023/05/15 03:21:27;;;;;;;84.72;50.00;;;;;;;;;;6131788;23;20046;-84
2023/05/15 03:23:53;;;;;;;77.00;49.80;;;;;;;;;;6183916;23;20064;-84
2023/05/15 03:26:19;;;;;;;77.55;52.15;;;;;;;;;;6184451;23;20068;-84
2023/05/15 03:28:45;;;;;;;73.80;52.15;;;;;;;;;;6156994;23;20020;-83
2023/05/15 03:31:13;;;;;;;71.07;49.50;;;;;;;;;;6132565;23;20013;-84
2023/05/15 03:33:39;;;;;;;63.55;45.95;;;;;;;;;;6156673;23;20020;-84
2023/05/15 03:36:05;;;;;;;71.97;46.03;;;;;;;;;;6157361;23;20013;-84
2023/05/15 03:38:31;;;;;;;63.63;43.60;;;;;;;;;;6157723;23;20097;-82
2023/05/15 03:40:57;;;;;;;52.10;40.38;;;;;;;;;;6158359;23;20407;-83
2023/05/15 03:43:23;;;;;;;55.35;42.95;;;;;;;;;;6185244;23;20052;-83
2023/05/15 03:45:49;;;;;;;59.17;44.00;;;;;;;;;;6185948;23;20013;-83
2023/05/15 03:48:15;;;;;;;56.28;44.17;;;;;;;;;;6158912;23;20016;-83
2023/05/15 03:50:43;;;;;;;58.97;43.50;;;;;;;;;;6158544;23;20468;-84
2023/05/15 03:53:09;;;;;;;59.25;42.83;;;;;;;;;;6158662;23;20352;-84
2023/05/15 03:55:35;;;;;;;54.80;40.67;;;;;;;;;;6135632;23;20013;-83
2023/05/15 03:58:01;;;;;;;47.22;39.08;;;;;;;;;;6159419;23;20499;-84
2023/05/15 04:00:27;;;;;;;56.38;42.38;;;;;;;;;;6186685;23;20017;-83
2023/05/15 04:02:53;;;;;;;74.88;40.70;;;;;;;;;;6186758;23;20017;-83
2023/05/15 04:05:20;;;;;;;64.68;40.53;;;;;;;;;;6185620;23;20448;-83
2023/05/15 04:07:46;;;;;;;55.75;40.05;;;;;;;;;;6159598;23;20017;-84
2023/05/15 04:10:12;;;;;;;58.67;41.28;;;;;;;;;;6159939;23;20096;-82
2023/05/15 04:12:39;;;;;;;58.50;40.60;;;;;;;;;;6160147;23;20024;-84
2023/05/15 04:15:18;;;;;;;54.33;38.83;;;;;;;;;;6159304;23;20015;-83
2023/05/15 04:17:45;;;;;;;55.72;40.40;;;;;;;;;;6133567;23;20028;-83
2023/05/15 04:20:15;;;;;;;57.42;40.35;;;;;;;;;;6158928;23;20021;-83
2023/05/15 04:22:42;;;;;;;54.67;38.60;;;;;;;;;;6135219;23;20013;-83
2023/05/15 04:25:10;;;;;;;57.88;40.03;;;;;;;;;;6159520;23;20013;-83
2023/05/15 04:27:36;;;;;;;55.85;40.40;;;;;;;;;;6186288;23;20013;-84
2023/05/15 04:30:02;;;;;;;54.53;39.15;;;;;;;;;;6159461;23;20312;-84
2023/05/15 04:32:29;;;;;;;54.03;40.50;;;;;;;;;;6186788;23;20456;-84
2023/05/15 04:34:55;;;;;;;56.95;40.80;;;;;;;;;;6136154;23;20021;-83
2023/05/15 04:37:21;;;;;;;54.55;38.58;;;;;;;;;;6160498;23;20014;-84
2023/05/15 04:39:47;;;;;;;49.63;37.42;;;;;;;;;;6180883;23;20340;-82
2023/05/15 04:42:13;;;;;;;50.78;37.58;;;;;;;;;;6131880;23;20013;-82
2023/05/15 04:44:40;;;;;;;51.80;37.80;;;;;;;;;;6157433;23;20044;-82
2023/05/15 04:47:06;;;;;;;42.35;33.75;;;;;;;;;;6183938;23;20013;-83
2023/05/15 04:49:32;;;;;;;50.90;37.42;;;;;;;;;;6157239;23;20095;-83
2023/05/15 04:51:58;;;;;;;50.63;36.72;;;;;;;;;;6184370;23;20457;-83
2023/05/15 04:54:24;;;;;;;40.83;33.15;;;;;;;;;;6133235;23;20016;-84
2023/05/15 04:56:50;;;;;;;42.63;33.50;;;;;;;;;;6158090;23;20021;-84
2023/05/15 04:59:17;;;;;;;39.13;31.58;;;;;;;;;;6184703;23;20019;-84
2023/05/15 05:01:43;;;;;;;37.63;31.17;;;;;;;;;;6157531;23;20075;-83
2023/05/15 05:04:09;;;;;;;39.88;30.75;;;;;;;;;;6184991;23;20063;-83
2023/05/15 05:06:35;;;;;;;38.47;30.88;;;;;;;;;;6158208;23;20017;-84
2023/05/15 05:09:01;;;;;;;38.83;32.20;;;;;;;;;;6158214;23;20025;-82
2023/05/15 05:11:27;;;;;;;36.63;30.15;;;;;;;;;;6158233;23;20020;-84
2023/05/15 05:13:53;;;;;;;37.70;31.45;;;;;;;;;;6158673;23;20013;-85
2023/05/15 05:16:19;;;;;;;35.20;30.80;;;;;;;;;;6183352;23;20021;-84
2023/05/15 05:18:45;;;;;;;35.75;29.73;;;;;;;;;;6185139;23;20021;-84
2023/05/15 05:21:11;;;;;;;41.38;31.70;;;;;;;;;;6132932;23;20099;-84
2023/05/15 05:23:37;;;;;;;33.83;30.25;;;;;;;;;;6156803;23;20340;-81
2023/05/15 05:26:03;;;;;;;36.97;30.85;;;;;;;;;;6132000;23;20023;-85
2023/05/15 05:28:29;;;;;;;33.95;30.38;;;;;;;;;;6130461;23;20044;-85
2023/05/15 05:30:58;;;;;;;33.92;30.23;;;;;;;;;;6155208;23;20028;-86
2023/05/15 05:33:24;;;;;;;32.42;28.90;;;;;;;;;;6180793;23;20017;-85
2023/05/15 05:35:50;;;;;;;34.72;28.30;;;;;;;;;;6154148;23;20021;-86
2023/05/15 05:38:16;;;;;;;32.17;28.88;;;;;;;;;;6181300;23;20017;-85
2023/05/15 05:40:42;;;;;;;30.55;27.25;;;;;;;;;;6154411;23;20013;-86
2023/05/15 05:43:08;;;;;;;34.60;27.23;;;;;;;;;;6154165;23;20009;-86
2023/05/15 05:45:34;;;;;;;27.77;24.88;;;;;;;;;;6130286;23;20016;-86
2023/05/15 05:48:00;;;;;;;27.92;24.95;;;;;;;;;;6156550;23;20021;-84
2023/05/15 05:50:26;;;;;;;23.75;21.35;;;;;;;;;;6156568;23;20013;-83
2023/05/15 05:52:52;;;;;;;27.27;24.42;;;;;;;;;;6183432;23;20460;-84
2023/05/15 05:55:18;;;;;;;24.48;21.02;;;;;;;;;;6156555;23;20088;-83
2023/05/15 05:57:45;;;;;;;26.27;22.23;;;;;;;;;;6156621;23;20456;-84
2023/05/15 06:00:11;;;;;;;23.58;21.27;;;;;;;;;;6182866;23;20055;-84
2023/05/15 06:02:37;;;;;;;24.02;21.05;;;;;;;;;;6156301;23;20052;-84
2023/05/15 06:05:05;;;;;;;28.92;20.65;;;;;;;;;;6156404;23;20382;-84
2023/05/15 06:07:31;;;;;;;23.30;19.33;;;;;;;;;;6183191;23;20383;-83
2023/05/15 06:10:00;;;;;;;23.00;20.65;;;;;;;;;;6156729;23;20040;-84
2023/05/15 06:12:27;;;;;;;22.73;19.85;;;;;;;;;;6183055;23;20017;-83
2023/05/15 06:14:53;;;;;;;23.75;20.05;;;;;;;;;;6155629;23;20448;-84
2023/05/15 06:17:20;;;;;;;20.02;17.88;;;;;;;;;;6156018;23;20092;-84
2023/05/15 06:19:46;;;;;;;20.88;17.80;;;;;;;;;;6182635;23;20031;-84
2023/05/15 06:22:12;;;;;;;19.02;16.77;;;;;;;;;;6155949;23;20118;-84
2023/05/15 06:24:37;;;;;;;18.35;16.45;;;;;;;;;;6131448;23;20013;-84
2023/05/15 06:27:04;;;;;;;16.40;14.88;;;;;;;;;;6156158;23;20013;-84
2023/05/15 06:29:34;;;;;;;16.58;14.88;;;;;;;;;;6155573;23;20020;-84
2023/05/15 06:32:00;;;;;;;14.80;13.38;;;;;;;;;;6156015;23;20017;-84
2023/05/15 06:34:26;;;;;;;15.13;13.52;;;;;;;;;;6156043;23;20020;-84
2023/05/15 06:36:52;;;;;;;15.65;13.82;;;;;;;;;;6156103;23;20013;-84
2023/05/15 06:39:18;;;;;;;17.30;12.82;;;;;;;;;;6182991;23;20017;-85
2023/05/15 06:41:44;;;;;;;14.38;12.88;;;;;;;;;;6131535;23;20100;-84
2023/05/15 06:44:10;;;;;;;14.60;12.57;;;;;;;;;;6156000;23;20028;-84
2023/05/15 06:46:36;;;;;;;15.70;10.90;;;;;;;;;;6183029;23;20013;-84
2023/05/15 06:49:02;;;;;;;12.40;10.13;;;;;;;;;;6131320;23;20061;-84
2023/05/15 06:51:28;;;;;;;12.93;10.02;;;;;;;;;;6156088;23;20012;-85
2023/05/15 06:53:54;;;;;;;12.68;10.43;;;;;;;;;;6155964;23;20032;-84
2023/05/15 06:56:20;;;;;;;13.00;11.10;;;;;;;;;;6182511;23;20105;-84
2023/05/15 06:58:47;;;;;;;12.20;11.02;;;;;;;;;;6182360;23;20021;-84
2023/05/15 07:01:13;;;;;;;13.55;12.25;;;;;;;;;;6131556;23;20009;-84
2023/05/15 07:03:39;;;;;;;12.60;10.65;;;;;;;;;;6156016;23;20013;-84
2023/05/15 07:06:05;;;;;;;12.30;10.43;;;;;;;;;;6182888;23;20088;-84
2023/05/15 07:08:31;;;;;;;11.80;10.55;;;;;;;;;;6131364;23;20009;-85
2023/05/15 07:10:57;;;;;;;12.60;10.52;;;;;;;;;;6182975;23;20154;-85
2023/05/15 07:13:23;;;;;;;11.57;10.43;;;;;;;;;;6182508;23;20440;-85
2023/05/15 07:15:49;;;;;;;14.60;10.25;;;;;;;;;;6133488;23;20017;-85
2023/05/15 07:18:15;;;;;;;11.73;10.05;;;;;;;;;;6133591;23;20035;-84
2023/05/15 07:20:41;;;;;;;13.93;10.50;;;;;;;;;;6133736;23;20511;-84
2023/05/15 07:23:07;;;;;;;15.73;10.57;;;;;;;;;;6157934;23;20013;-84
2023/05/15 07:25:33;;;;;;;13.90;12.27;;;;;;;;;;6157880;23;20024;-84
2023/05/15 07:27:59;;;;;;;13.85;12.35;;;;;;;;;;6132807;23;20012;-85
2023/05/15 07:30:25;;;;;;;16.40;12.05;;;;;;;;;;6158197;23;20013;-85
2023/05/15 07:32:51;;;;;;;13.25;11.48;;;;;;;;;;6158017;23;20403;-84
2023/05/15 07:35:17;;;;;;;13.05;10.65;;;;;;;;;;6158415;23;20013;-84
2023/05/15 07:37:43;;;;;;;13.18;11.05;;;;;;;;;;6133503;23;20400;-84
2023/05/15 07:40:09;;;;;;;13.05;10.27;;;;;;;;;;6133219;23;20055;-84
2023/05/15 07:42:35;;;;;;;9.90;8.60;;;;;;;;;;6132426;23;20017;-84
2023/05/15 07:45:02;;;;;;;13.25;9.75;;;;;;;;;;6133350;23;20017;-85
2023/05/15 07:47:28;;;;;;;11.65;8.82;;;;;;;;;;6158320;23;20024;-84
2023/05/15 07:49:54;;;;;;;8.13;6.95;;;;;;;;;;6157689;23;20017;-84
2023/05/15 07:52:20;;;;;;;10.15;8.35;;;;;;;;;;6133154;23;20020;-84
2023/05/15 07:54:46;;;;;;;11.27;7.90;;;;;;;;;;6133195;23;20456;-84
2023/05/15 07:57:12;;;;;;;10.95;9.82;;;;;;;;;;6157333;23;20010;-84
2023/05/15 07:59:39;;;;;;;11.52;9.38;;;;;;;;;;6158102;23;20017;-85
2023/05/15 08:02:05;;;;;;;9.82;8.82;;;;;;;;;;6157775;23;20013;-84
2023/05/15 08:04:31;;;;;;;10.70;8.18;;;;;;;;;;6132997;23;20036;-84
2023/05/15 08:06:57;;;;;;;8.68;7.15;;;;;;;;;;6132769;23;20024;-84
2023/05/15 08:09:23;;;;;;;9.00;6.00;;;;;;;;;;6157061;23;20024;-83
2023/05/15 08:11:48;;;;;;;9.48;7.78;;;;;;;;;;6157046;23;20313;-84
2023/05/15 08:14:14;;;;;;;10.77;7.75;;;;;;;;;;6157258;23;20017;-84
2023/05/15 08:16:41;;;;;;;10.93;7.68;;;;;;;;;;6157165;23;20075;-84
2023/05/15 08:19:09;;;;;;;7.03;6.32;;;;;;;;;;6132438;23;20090;-84
2023/05/15 08:21:34;;;;;;;10.25;6.78;;;;;;;;;;6157152;23;20024;-84
2023/05/15 08:24:00;;;;;;;8.63;6.60;;;;;;;;;;6132775;23;20013;-84
2023/05/15 08:26:26;;;;;;;10.57;7.00;;;;;;;;;;6131641;23;20036;-84
2023/05/15 08:28:52;;;;;;;9.27;7.20;;;;;;;;;;6157682;23;20066;-84
2023/05/15 08:31:18;;;;;;;9.60;6.75;;;;;;;;;;6132702;23;20033;-84
2023/05/15 08:33:44;;;;;;;10.98;8.10;;;;;;;;;;6157821;23;20074;-84
2023/05/15 08:36:10;;;;;;;8.57;6.90;;;;;;;;;;6157430;23;20021;-84
2023/05/15 08:38:36;;;;;;;11.20;8.52;;;;;;;;;;6156618;23;20031;-84
2023/05/15 08:41:06;;;;;;;8.20;7.00;;;;;;;;;;6183910;23;20016;-84
2023/05/15 08:43:35;;;;;;;10.93;6.15;;;;;;;;;;6183965;23;20112;-84
2023/05/15 08:46:02;;;;;;;8.23;7.03;;;;;;;;;;6132624;23;20036;-84
2023/05/15 08:48:29;;;;;;;10.23;6.93;;;;;;;;;;6183485;23;20517;-84
2023/05/15 08:50:57;;;;;;;7.68;6.13;;;;;;;;;;6157376;23;20013;-84
2023/05/15 08:53:23;;;;;;;10.75;7.45;;;;;;;;;;6156402;23;20346;-84
2023/05/15 08:55:49;;;;;;;10.25;7.20;;;;;;;;;;6132375;23;20013;-84
2023/05/15 08:58:16;;;;;;;9.13;7.40;;;;;;;;;;6183761;23;20071;-84
2023/05/15 09:00:42;;;;;;;8.77;6.50;;;;;;;;;;6183712;23;20041;-84
2023/05/15 09:03:13;;;;;;;10.52;7.38;;;;;;;;;;6156889;23;20096;-84
2023/05/15 09:05:39;;;;;;;9.07;8.15;;;;;;;;;;6156896;23;20063;-84
2023/05/15 09:08:06;;;;;;;9.02;7.50;;;;;;;;;;6156167;23;20009;-83
2023/05/15 09:10:32;;;;;;;9.98;6.70;;;;;;;;;;6156514;23;20009;-84
2023/05/15 09:12:58;;;;;;;10.98;8.00;;;;;;;;;;6132056;23;20044;-84
2023/05/15 09:15:24;;;;;;;10.98;8.20;;;;;;;;;;6157060;23;20083;-84
2023/05/15 09:17:51;;;;;;;8.15;6.60;;;;;;;;;;6183012;23;20404;-84
2023/05/15 09:20:31;;;;;;;9.10;7.82;;;;;;;;;;6156751;23;20092;-84
2023/05/15 09:22:57;;;;;;;10.13;6.78;;;;;;;;;;6182958;23;20028;-84
2023/05/15 09:25:38;;;;;;;8.20;6.90;;;;;;;;;;6183808;23;20017;-84
2023/05/15 09:28:24;;;;;;;9.05;6.85;;;;;;;;;;6132054;23;20012;-84
2023/05/15 09:30:56;;;;;;;7.80;7.00;;;;;;;;;;6121462;23;20021;-84
2023/05/15 09:33:27;;;;;;;11.27;6.53;;;;;;;;;;6132272;23;20021;-84
2023/05/15 09:35:53;;;;;;;9.43;7.20;;;;;;;;;;6132491;23;20349;-84
2023/05/15 09:38:18;;;;;;;10.00;8.40;;;;;;;;;;6156741;23;20031;-84
2023/05/15 09:40:44;;;;;;;10.02;8.13;;;;;;;;;;6157140;23;20020;-84
2023/05/15 09:43:11;;;;;;;9.38;8.27;;;;;;;;;;6183612;23;20033;-84
2023/05/15 09:45:37;;;;;;;12.13;9.10;;;;;;;;;;6156638;23;20019;-84
2023/05/15 09:48:06;;;;;;;11.23;7.93;;;;;;;;;;6156829;23;20084;-83
2023/05/15 09:50:37;;;;;;;10.68;8.60;;;;;;;;;;6156922;23;20358;-84
2023/05/15 09:53:03;;;;;;;10.75;8.93;;;;;;;;;;6183118;23;20017;-84
2023/05/15 09:55:35;;;;;;;13.27;9.13;;;;;;;;;;6156820;23;20035;-84
2023/05/15 09:58:06;;;;;;;11.30;8.00;;;;;;;;;;6156787;23;20009;-84
2023/05/15 10:00:32;;;;;;;12.23;8.13;;;;;;;;;;6131968;23;20044;-84
2023/05/15 10:02:58;;;;;;;9.65;8.75;;;;;;;;;;6183135;23;20043;-84
2023/05/15 10:05:26;;;;;;;10.55;9.40;;;;;;;;;;6156273;23;20316;-84
2023/05/15 10:07:58;;;;;;;13.15;8.52;;;;;;;;;;6155935;23;20021;-83
2023/05/15 10:10:25;;;;;;;10.25;8.30;;;;;;;;;;6155991;23;20016;-83
2023/05/15 10:12:52;;;;;;;13.98;8.15;;;;;;;;;;6155997;23;20013;-84
2023/05/15 10:15:19;;;;;;;10.82;8.85;;;;;;;;;;6156121;23;20133;-84
2023/05/15 10:17:49;;;;;;;11.65;8.98;;;;;;;;;;6155924;23;20028;-84
2023/05/15 10:20:19;;;;;;;10.65;9.45;;;;;;;;;;6155372;23;20032;-83
2023/05/15 10:22:47;;;;;;;10.25;8.32;;;;;;;;;;6155827;23;20020;-84
2023/05/15 10:25:16;;;;;;;10.02;8.25;;;;;;;;;;6131713;23;20390;-83
2023/05/15 10:27:42;;;;;;;12.32;8.07;;;;;;;;;;6156352;23;20044;-84
2023/05/15 10:30:12;;;;;;;12.27;9.07;;;;;;;;;;6182778;23;20332;-83
2023/05/15 10:32:40;;;;;;;12.57;9.57;;;;;;;;;;6131424;23;20044;-84
2023/05/15 10:35:07;;;;;;;13.20;8.43;;;;;;;;;;6155579;23;20009;-83
2023/05/15 10:37:35;;;;;;;9.88;8.05;;;;;;;;;;6182759;23;20402;-84
2023/05/15 10:40:01;;;;;;;15.52;8.05;;;;;;;;;;6131498;23;20017;-83
2023/05/15 10:42:28;;;;;;;10.80;8.35;;;;;;;;;;6156127;23;20075;-83
2023/05/15 10:44:58;;;;;;;10.13;8.68;;;;;;;;;;6131263;23;20348;-84
2023/05/15 10:47:25;;;;;;;11.15;8.63;;;;;;;;;;6155826;23;20013;-83
2023/05/15 10:49:51;;;;;;;9.20;7.40;;;;;;;;;;6130376;23;20017;-84
2023/05/15 10:52:17;;;;;;;10.73;8.70;;;;;;;;;;6131511;23;20031;-84
2023/05/15 10:54:43;;;;;;;12.95;8.52;;;;;;;;;;6157764;23;20016;-83
2023/05/15 10:57:09;;;;;;;11.25;7.95;;;;;;;;;;6134608;23;20013;-84
2023/05/15 10:59:35;;;;;;;10.57;7.85;;;;;;;;;;6158416;23;20013;-83
2023/05/15 11:02:28;;;;;;;10.38;7.32;;;;;;;;;;6133325;23;20083;-84
2023/05/15 11:04:58;;;;;;;10.80;9.27;;;;;;;;;;6152577;23;20009;-84
2023/05/15 11:07:24;;;;;;;10.93;7.47;;;;;;;;;;6182298;23;20076;-84
2023/05/15 11:09:51;;;;;;;9.27;7.03;;;;;;;;;;6155937;23;20071;-84
2023/05/15 11:12:18;;;;;;;11.30;8.13;;;;;;;;;;6156192;23;20445;-84
2023/05/15 11:15:04;;;;;;;11.15;7.50;;;;;;;;;;6182587;23;20537;-84
2023/05/15 11:17:33;;;;;;;9.25;7.30;;;;;;;;;;6155567;23;20048;-85
2023/05/15 11:19:59;;;;;;;11.38;8.38;;;;;;;;;;6181987;23;20017;-84
2023/05/15 11:22:25;;;;;;;9.65;7.32;;;;;;;;;;6155753;23;20021;-84
2023/05/15 11:24:54;;;;;;;10.55;8.60;;;;;;;;;;6182644;23;20285;-85
2023/05/15 11:27:25;;;;;;;10.75;6.88;;;;;;;;;;6182573;23;20439;-85
2023/05/15 11:30:09;;;;;;;10.18;7.25;;;;;;;;;;6131331;23;20021;-84
2023/05/15 11:32:42;;;;;;;8.65;6.85;;;;;;;;;;6130731;23;20039;-84
2023/05/15 11:35:13;;;;;;;10.40;7.55;;;;;;;;;;6156564;23;20009;-85
2023/05/15 11:37:53;;;;;;;9.63;7.32;;;;;;;;;;6182720;23;20084;-85
2023/05/15 11:40:20;;;;;;;10.70;6.93;;;;;;;;;;6182483;23;20447;-85
2023/05/15 11:42:58;;;;;;;8.77;6.30;;;;;;;;;;6156210;23;20017;-84
2023/05/15 11:45:24;;;;;;;9.73;6.90;;;;;;;;;;6156080;23;20019;-85
2023/05/15 11:47:50;;;;;;;9.70;6.22;;;;;;;;;;6155392;23;20049;-85
2023/05/15 11:50:16;;;;;;;7.72;5.65;;;;;;;;;;6155937;23;20035;-85
2023/05/15 11:52:43;;;;;;;7.03;5.05;;;;;;;;;;6182691;23;20019;-84
2023/05/15 11:55:09;;;;;;;7.32;6.47;;;;;;;;;;6182775;23;20013;-84
2023/05/15 11:57:37;;;;;;;9.52;6.30;;;;;;;;;;6156168;23;20009;-84
2023/05/15 12:00:03;;;;;;;6.93;5.80;;;;;;;;;;6156697;23;20486;-84
2023/05/15 12:02:29;;;;;;;12.25;6.07;;;;;;;;;;6157541;23;20072;-84
2023/05/15 12:04:55;;;;;;;8.05;5.20;;;;;;;;;;6184076;23;20017;-84
2023/05/15 12:07:21;;;;;;;9.73;6.15;;;;;;;;;;6133120;23;20048;-84
2023/05/15 12:09:54;;;;;;;9.13;6.50;;;;;;;;;;6158065;23;20019;-84
2023/05/15 12:12:20;;;;;;;9.15;6.43;;;;;;;;;;6157913;23;20460;-85
2023/05/15 12:14:46;;;;;;;11.70;6.50;;;;;;;;;;6133111;23;20019;-84
2023/05/15 12:17:12;;;;;;;10.57;5.00;;;;;;;;;;6152163;23;20294;-84
2023/05/15 12:19:38;;;;;;;10.93;6.75;;;;;;;;;;6152622;23;20049;-84
2023/05/15 12:22:06;;;;;;;11.10;6.72;;;;;;;;;;6152415;23;20393;-84
2023/05/15 12:24:34;;;;;;;8.35;6.40;;;;;;;;;;6127711;23;20020;-84
2023/05/15 12:27:00;;;;;;;8.88;7.65;;;;;;;;;;6152412;23;20017;-84
2023/05/15 12:29:27;;;;;;;10.48;7.22;;;;;;;;;;6154318;23;20282;-84
2023/05/15 12:31:53;;;;;;;12.20;9.60;;;;;;;;;;6152148;23;20010;-85
2023/05/15 12:34:20;;;;;;;10.93;7.97;;;;;;;;;;6152356;23;20021;-84
2023/05/15 12:36:46;;;;;;;12.23;7.72;;;;;;;;;;6127679;23;20020;-85
2023/05/15 12:39:12;;;;;;;14.80;11.15;;;;;;;;;;6127626;23;20033;-84
2023/05/15 12:41:38;;;;;;;12.45;9.52;;;;;;;;;;6127920;23;20068;-85
2023/05/15 12:44:05;;;;;;;14.05;9.98;;;;;;;;;;6152369;23;20017;-84
2023/05/15 12:46:31;;;;;;;10.20;8.45;;;;;;;;;;6127155;23;20025;-84
2023/05/15 12:48:58;;;;;;;11.80;7.68;;;;;;;;;;6151922;23;20096;-84
2023/05/15 12:51:24;;;;;;;9.43;8.30;;;;;;;;;;6152371;23;20009;-84
2023/05/15 12:53:53;;;;;;;11.60;9.10;;;;;;;;;;6152017;23;20092;-84
2023/05/15 12:56:20;;;;;;;10.45;8.30;;;;;;;;;;6152050;23;20024;-84
2023/05/15 12:58:47;;;;;;;8.93;8.07;;;;;;;;;;6151908;23;20389;-84
2023/05/15 13:01:15;;;;;;;11.20;6.90;;;;;;;;;;6153316;23;20175;-84
2023/05/15 13:03:42;;;;;;;9.23;7.68;;;;;;;;;;6152222;23;20321;-83
2023/05/15 13:06:09;;;;;;;9.25;7.90;;;;;;;;;;6153752;23;20013;-84
2023/05/15 13:08:41;;;;;;;9.50;7.10;;;;;;;;;;6151966;23;20452;-84
2023/05/15 13:11:12;;;;;;;9.98;6.70;;;;;;;;;;6152072;23;20020;-84
2023/05/15 13:13:48;;;;;;;7.53;5.78;;;;;;;;;;6152380;23;20396;-84
2023/05/15 13:16:18;;;;;;;9.98;7.15;;;;;;;;;;6126446;23;20101;-85
2023/05/15 13:18:44;;;;;;;9.52;6.22;;;;;;;;;;6152203;23;20029;-84
2023/05/15 13:21:10;;;;;;;9.23;7.55;;;;;;;;;;6151444;23;20051;-85
2023/05/15 13:23:36;;;;;;;9.05;7.88;;;;;;;;;;6127346;23;20021;-85
2023/05/15 13:26:02;;;;;;;8.75;7.15;;;;;;;;;;6127075;23;20014;-85
2023/05/15 13:28:28;;;;;;;13.25;8.07;;;;;;;;;;6127149;23;20041;-85
2023/05/15 13:30:54;;;;;;;11.35;8.20;;;;;;;;;;6126192;23;20045;-84
2023/05/15 13:33:20;;;;;;;11.60;8.38;;;;;;;;;;6151671;23;20050;-84
2023/05/15 13:35:46;;;;;;;10.07;6.90;;;;;;;;;;6151536;23;20016;-85
2023/05/15 13:38:12;;;;;;;7.80;7.00;;;;;;;;;;6151905;23;20021;-85
2023/05/15 13:40:39;;;;;;;9.52;8.50;;;;;;;;;;6126931;23;20013;-85
2023/05/15 13:43:05;;;;;;;10.02;8.85;;;;;;;;;;6150955;23;20017;-84
2023/05/15 13:45:31;;;;;;;10.45;8.48;;;;;;;;;;6153384;23;20014;-85
2023/05/15 13:47:57;;;;;;;9.35;7.18;;;;;;;;;;6151457;23;20100;-84
2023/05/15 13:50:23;;;;;;;14.77;8.70;;;;;;;;;;6126682;23;20018;-84
2023/05/15 13:52:49;;;;;;;11.20;8.93;;;;;;;;;;6153414;23;20013;-84
2023/05/15 13:55:15;;;;;;;10.95;9.18;;;;;;;;;;6151411;23;20405;-84
2023/05/15 13:57:42;;;;;;;9.20;8.20;;;;;;;;;;6152593;23;20060;-85
2023/05/15 14:00:12;;;;;;;9.32;8.43;;;;;;;;;;6153382;23;20017;-84
2023/05/15 14:02:38;;;;;;;9.77;8.00;;;;;;;;;;6151601;23;20156;-84
2023/05/15 14:05:05;;;;;;;10.25;7.28;;;;;;;;;;6153157;23;20093;-85
2023/05/15 14:07:31;;;;;;;8.57;7.68;;;;;;;;;;6126645;23;20479;-85
2023/05/15 14:09:57;;;;;;;11.38;7.70;;;;;;;;;;6126600;23;20018;-85
2023/05/15 14:12:23;;;;;;;9.25;8.13;;;;;;;;;;6152610;23;20019;-85
2023/05/15 14:14:50;;;;;;;10.93;9.05;;;;;;;;;;6126800;23;20468;-85
2023/05/15 14:17:17;;;;;;;11.05;9.57;;;;;;;;;;6175370;23;20356;-84
2023/05/15 14:19:43;;;;;;;10.75;8.73;;;;;;;;;;6183019;23;20035;-84
2023/05/15 14:22:09;;;;;;;10.73;9.73;;;;;;;;;;6156523;23;20020;-84
2023/05/15 14:24:35;;;;;;;11.15;8.05;;;;;;;;;;6156313;23;20055;-85
2023/05/15 14:27:01;;;;;;;10.13;9.00;;;;;;;;;;6155979;23;20013;-84